createdAt,value
2022-10-30T00:05:55.583Z,11.63
2022-10-30T00:12:43.631Z,12.05
2022-10-30T00:19:29.294Z,16.63
2022-10-30T00:26:14.692Z,13.40
2022-10-30T00:33:02.723Z,16.73
2022-10-30T00:39:48.109Z,12.43
2022-10-30T00:46:40.032Z,17.13
2022-10-30T00:53:28.577Z,12.30
2022-10-30T01:00:16.584Z,15.68
2022-10-30T01:07:03.596Z,13.00
2022-10-30T01:13:54.329Z,13.82
2022-10-30T01:21:15.927Z,12.60
2022-10-30T01:28:15.861Z,14.88
2022-10-30T01:35:11.188Z,13.88
2022-10-30T01:41:59.030Z,13.80
2022-10-30T01:49:26.152Z,16.10
2022-10-30T01:56:25.910Z,14.55
2022-10-30T02:03:18.212Z,14.57
2022-10-30T02:10:04.010Z,14.80
2022-10-30T02:16:57.156Z,13.90
2022-10-30T02:23:47.279Z,14.07
2022-10-30T02:30:33.111Z,11.15
2022-10-30T02:37:20.359Z,12.07
2022-10-30T02:44:09.282Z,15.70
2022-10-30T02:50:54.707Z,10.18
2022-10-30T02:57:40.706Z,11.93
2022-10-30T03:04:28.795Z,11.52
2022-10-30T03:11:17.314Z,14.05
2022-10-30T03:18:02.668Z,9.80
2022-10-30T03:24:50.645Z,11.40
2022-10-30T03:31:37.237Z,11.68
2022-10-30T03:38:38.484Z,13.07
2022-10-30T04:06:09.450Z,12.65
2022-10-30T04:12:56.135Z,10.07
2022-10-30T04:19:42.191Z,14.10
2022-10-30T04:26:31.997Z,14.75
2022-10-30T04:33:17.996Z,14.57
2022-10-30T04:40:03.402Z,12.13
2022-10-30T04:46:59.509Z,11.43
2022-10-30T04:53:45.065Z,13.85
2022-10-30T05:00:34.383Z,15.18
2022-10-30T05:07:31.742Z,9.95
2022-10-30T05:14:17.277Z,11.10
2022-10-30T05:21:05.332Z,11.13
2022-10-30T05:27:53.417Z,14.02
2022-10-30T05:34:39.024Z,12.45
2022-10-30T05:41:24.583Z,10.50
2022-10-30T05:48:12.870Z,15.00
2022-10-30T05:55:03.621Z,11.90
2022-10-30T06:02:00.340Z,10.05
2022-10-30T06:08:49.705Z,13.48
2022-10-30T06:15:53.700Z,13.93
2022-10-30T06:22:39.555Z,11.60
2022-10-30T06:29:35.764Z,12.07
2022-10-30T06:36:21.144Z,9.25
2022-10-30T06:43:06.735Z,12.57
2022-10-30T06:49:58.573Z,11.98
2022-10-30T06:56:44.403Z,13.05
2022-10-30T07:03:29.764Z,11.47
2022-10-30T07:10:17.888Z,11.70
2022-10-30T07:17:21.802Z,12.73
2022-10-30T07:24:13.487Z,16.73
2022-10-30T07:31:11.312Z,15.35
2022-10-30T07:38:17.743Z,17.17
2022-10-30T07:52:27.089Z,13.52
2022-10-30T07:59:12.600Z,13.07
2022-10-30T08:06:18.975Z,18.08
2022-10-30T08:13:13.439Z,12.90
2022-10-30T08:19:59.407Z,15.77
2022-10-30T08:26:45.185Z,15.82
2022-10-30T08:33:33.951Z,16.13
2022-10-30T08:40:39.288Z,18.73
2022-10-30T08:47:25.996Z,16.55
2022-10-30T08:54:15.451Z,14.98
2022-10-30T09:01:03.785Z,16.65
2022-10-30T09:08:11.916Z,19.25
2022-10-30T09:15:20.587Z,21.07
2022-10-30T09:22:12.749Z,19.75
2022-10-30T09:29:00.536Z,18.55
2022-10-30T09:36:08.324Z,17.80
2022-10-30T09:42:54.738Z,19.83
2022-10-30T09:49:59.219Z,18.52
2022-10-30T09:56:53.551Z,17.90
2022-10-30T10:03:58.438Z,25.83
2022-10-30T10:11:08.903Z,20.13
2022-10-30T10:17:58.913Z,17.67
2022-10-30T10:24:47.972Z,17.33
2022-10-30T10:31:46.223Z,18.65
2022-10-30T10:38:51.338Z,17.98
2022-10-30T10:45:50.018Z,18.58
2022-10-30T10:52:42.838Z,20.08
2022-10-30T10:59:39.368Z,19.92
2022-10-30T11:06:29.074Z,23.45
2022-10-30T11:13:17.255Z,15.13
2022-10-30T11:20:20.407Z,16.08
2022-10-30T11:27:28.405Z,17.98
2022-10-30T11:34:28.605Z,18.15
2022-10-30T11:41:18.040Z,16.27
2022-10-30T11:48:08.059Z,14.05
2022-10-30T11:55:01.941Z,14.23
2022-10-30T12:02:03.691Z,16.63
2022-10-30T12:09:03.959Z,12.88
2022-10-30T12:15:51.759Z,13.65
2022-10-30T12:22:41.316Z,10.68
2022-10-30T12:30:02.576Z,9.95
2022-10-30T12:36:51.020Z,14.48
2022-10-30T12:43:39.747Z,11.75
2022-10-30T12:50:30.754Z,16.60
2022-10-30T12:57:19.979Z,7.30
2022-10-30T13:04:17.726Z,15.30
2022-10-30T13:11:12.891Z,9.25
2022-10-30T13:18:02.382Z,11.67
2022-10-30T13:25:03.802Z,11.15
2022-10-30T13:32:10.820Z,8.60
2022-10-30T13:39:03.423Z,10.35
2022-10-30T13:46:14.810Z,10.60
2022-10-30T13:53:05.269Z,7.93
2022-10-30T14:00:04.392Z,13.18
2022-10-30T14:07:17.832Z,11.70
2022-10-30T14:14:14.268Z,7.55
2022-10-30T14:21:01.075Z,8.05
2022-10-30T14:27:59.588Z,13.07
2022-10-30T14:34:46.261Z,9.85
2022-10-30T14:41:52.131Z,10.48
2022-10-30T14:48:55.131Z,8.32
2022-10-30T14:55:59.055Z,10.25
2022-10-30T15:02:57.427Z,8.73
2022-10-30T15:10:04.852Z,7.72
2022-10-30T15:16:54.916Z,7.25
2022-10-30T15:23:41.077Z,11.15
2022-10-30T15:30:30.691Z,6.57
2022-10-30T15:37:16.780Z,8.43
2022-10-30T15:44:02.713Z,10.48
2022-10-30T15:51:03.088Z,7.13
2022-10-30T15:58:07.898Z,8.93
2022-10-30T16:04:53.757Z,10.43
2022-10-30T16:11:41.896Z,8.05
2022-10-30T16:18:30.635Z,9.88
2022-10-30T16:25:19.352Z,12.35
2022-10-30T16:32:10.962Z,9.15
2022-10-30T16:38:58.187Z,9.98
2022-10-30T16:45:52.703Z,13.50
2022-10-30T16:52:40.737Z,8.93
2022-10-30T16:59:35.669Z,13.93
2022-10-30T17:06:31.206Z,16.10
2022-10-30T17:13:38.616Z,14.07
2022-10-30T17:20:31.352Z,18.80
2022-10-30T17:27:47.106Z,15.65
2022-10-30T17:34:41.012Z,16.13
2022-10-30T17:41:26.686Z,16.05
2022-10-30T17:48:18.383Z,13.63
2022-10-30T17:55:24.998Z,20.08
2022-10-30T18:02:16.953Z,30.35
2022-10-30T18:09:02.441Z,17.98
2022-10-30T18:15:56.199Z,14.93
2022-10-30T18:22:41.590Z,15.43
2022-10-30T18:29:26.944Z,11.27
2022-10-30T18:36:18.904Z,13.33
2022-10-30T18:43:05.199Z,18.95
2022-10-30T18:56:38.405Z,19.65
2022-10-30T19:03:23.787Z,18.77
2022-10-30T19:10:11.043Z,20.87
2022-10-30T19:16:59.023Z,23.52
2022-10-30T19:23:44.521Z,24.30
2022-10-30T19:30:29.927Z,20.93
2022-10-30T19:37:17.873Z,16.57
2022-10-30T19:44:03.231Z,20.13
2022-10-30T19:50:49.971Z,17.05
2022-10-30T19:57:37.937Z,20.90
2022-10-30T20:04:23.291Z,15.88
2022-10-30T20:11:09.122Z,16.87
2022-10-30T20:17:58.150Z,15.55
2022-10-30T20:24:43.612Z,17.35
2022-10-30T20:31:29.028Z,22.13
2022-10-30T20:38:21.591Z,23.17
2022-10-30T20:45:08.871Z,18.48
2022-10-30T20:51:54.361Z,17.13
2022-10-30T20:58:42.677Z,21.13
2022-10-30T21:05:43.147Z,16.58
2022-10-30T21:12:29.815Z,15.15
2022-10-30T21:19:18.358Z,13.17
2022-10-30T21:26:04.620Z,10.77
2022-10-30T21:39:37.902Z,17.30
2022-10-30T21:46:24.819Z,13.60
2022-10-30T21:53:10.211Z,15.20
2022-10-30T22:00:01.506Z,11.57
2022-10-30T22:06:52.752Z,11.60
2022-10-30T22:13:39.419Z,12.17
2022-10-30T22:20:28.041Z,12.40
2022-10-30T22:27:13.606Z,12.80
2022-10-30T22:33:59.680Z,10.13
2022-10-30T22:40:47.648Z,11.80
2022-10-30T22:47:33.075Z,12.80
2022-10-30T22:54:18.482Z,15.93
2022-10-30T23:01:16.204Z,12.40
2022-10-30T23:08:01.610Z,12.25
2022-10-30T23:14:46.957Z,12.00
2022-10-30T23:21:35.763Z,12.93
2022-10-30T23:28:21.131Z,11.38
2022-10-30T23:35:06.767Z,15.07
2022-10-30T23:41:54.742Z,13.23
2022-10-30T23:48:40.086Z,13.85
2022-10-30T23:55:25.470Z,14.02
